createdAt,value
2018-11-26T00:01:48.707Z,14.93
2018-11-26T00:04:17.919Z,14.70
2018-11-26T00:06:47.131Z,15.53
2018-11-26T00:09:16.613Z,13.83
2018-11-26T00:11:46.788Z,14.87
2018-11-26T00:14:16.281Z,14.00
2018-11-26T00:16:45.532Z,14.25
2018-11-26T00:19:15.376Z,15.70
2018-11-26T00:21:44.649Z,14.90
2018-11-26T00:24:14.869Z,14.80
2018-11-26T00:26:44.307Z,14.70
2018-11-26T00:29:14.381Z,14.47
2018-11-26T00:31:44.105Z,14.87
2018-11-26T00:34:13.299Z,14.60
2018-11-26T00:36:42.595Z,13.38
2018-11-26T00:39:12.519Z,13.83
2018-11-26T00:41:41.749Z,13.43
2018-11-26T00:44:11.051Z,14.40
2018-11-26T00:46:40.227Z,13.23
2018-11-26T00:49:09.480Z,14.27
2018-11-26T00:51:38.634Z,14.77
2018-11-26T00:54:07.823Z,13.93
2018-11-26T00:56:37.023Z,15.80
2018-11-26T00:59:06.229Z,15.30
2018-11-26T01:01:35.438Z,14.57
2018-11-26T01:04:05.027Z,14.57
2018-11-26T01:06:34.231Z,14.37
2018-11-26T01:09:03.669Z,15.10
2018-11-26T01:11:32.825Z,13.27
2018-11-26T01:14:02.044Z,14.40
2018-11-26T01:16:31.246Z,13.90
2018-11-26T01:19:00.490Z,14.10
2018-11-26T01:21:29.716Z,14.17
2018-11-26T01:23:58.999Z,14.60
2018-11-26T01:26:28.234Z,14.47
2018-11-26T01:28:57.532Z,14.07
2018-11-26T01:31:26.749Z,13.90
2018-11-26T01:33:55.937Z,14.90
2018-11-26T01:36:25.156Z,14.85
2018-11-26T01:38:54.426Z,14.20
2018-11-26T01:41:23.693Z,13.57
2018-11-26T01:43:52.895Z,14.53
2018-11-26T01:46:22.122Z,14.83
2018-11-26T01:48:51.357Z,14.67
2018-11-26T01:51:20.647Z,13.67
2018-11-26T01:53:49.914Z,13.47
2018-11-26T01:56:19.209Z,13.70
2018-11-26T01:58:48.484Z,15.30
2018-11-26T02:01:17.819Z,14.43
2018-11-26T02:03:46.983Z,14.00
2018-11-26T02:06:16.827Z,13.23
2018-11-26T02:08:46.088Z,13.53
2018-11-26T02:11:15.929Z,13.43
2018-11-26T02:13:47.946Z,13.63
2018-11-26T02:16:17.888Z,14.40
2018-11-26T02:18:47.107Z,13.90
2018-11-26T02:21:16.989Z,15.17
2018-11-26T02:23:46.228Z,13.62
2018-11-26T02:26:15.798Z,14.95
2018-11-26T02:28:45.026Z,15.17
2018-11-26T02:31:14.875Z,14.83
2018-11-26T02:33:44.071Z,14.50
2018-11-26T02:36:13.940Z,14.33
2018-11-26T02:38:43.109Z,14.37
2018-11-26T02:41:12.326Z,14.47
2018-11-26T02:43:41.580Z,14.00
2018-11-26T02:46:11.383Z,15.30
2018-11-26T02:48:40.819Z,15.18
2018-11-26T02:51:10.078Z,15.10
2018-11-26T02:53:39.349Z,16.50
2018-11-26T02:56:08.557Z,14.33
2018-11-26T02:58:37.820Z,16.47
2018-11-26T03:01:07.285Z,16.13
2018-11-26T03:03:36.600Z,14.77
2018-11-26T03:06:06.129Z,15.20
2018-11-26T03:08:35.428Z,15.40
2018-11-26T03:11:04.728Z,16.23
2018-11-26T03:13:34.015Z,15.67
2018-11-26T03:16:03.233Z,15.67
2018-11-26T03:18:32.421Z,15.60
2018-11-26T03:21:01.636Z,15.40
2018-11-26T03:23:30.887Z,15.58
2018-11-26T03:26:00.093Z,16.77
2018-11-26T03:28:29.280Z,16.00
2018-11-26T03:30:58.516Z,16.00
2018-11-26T03:33:27.925Z,15.70
2018-11-26T03:35:57.279Z,15.43
2018-11-26T03:39:04.473Z,16.50
2018-11-26T03:41:33.770Z,16.07
2018-11-26T03:44:03.047Z,15.48
2018-11-26T03:46:32.306Z,15.37
2018-11-26T03:49:01.505Z,17.40
2018-11-26T03:51:30.801Z,14.83
2018-11-26T03:54:00.102Z,16.80
2018-11-26T03:56:30.219Z,17.12
2018-11-26T03:58:59.531Z,16.50
2018-11-26T04:01:28.806Z,16.50
2018-11-26T04:03:58.085Z,17.50
2018-11-26T04:06:27.491Z,17.60
2018-11-26T04:08:56.805Z,16.87
2018-11-26T04:11:26.114Z,17.73
2018-11-26T04:13:55.386Z,17.10
2018-11-26T04:16:24.627Z,16.83
2018-11-26T04:18:53.883Z,18.77
2018-11-26T04:21:23.228Z,18.60
2018-11-26T04:23:52.448Z,17.80
2018-11-26T04:26:21.659Z,19.40
2018-11-26T04:28:50.919Z,19.03
2018-11-26T04:31:20.146Z,18.57
2018-11-26T04:33:49.418Z,18.37
2018-11-26T04:36:18.752Z,19.30
2018-11-26T04:38:47.947Z,18.27
2018-11-26T04:41:17.643Z,18.40
2018-11-26T04:43:47.029Z,20.10
2018-11-26T04:46:16.559Z,18.07
2018-11-26T04:48:45.750Z,18.93
2018-11-26T04:51:15.534Z,19.40
2018-11-26T04:53:44.915Z,18.40
2018-11-26T04:56:14.760Z,18.77
2018-11-26T04:58:44.064Z,20.00
2018-11-26T05:01:13.385Z,20.83
2018-11-26T05:03:42.779Z,19.87
2018-11-26T05:06:12.083Z,21.20
2018-11-26T05:08:41.436Z,20.00
2018-11-26T05:11:10.814Z,21.00
2018-11-26T05:13:40.032Z,19.43
2018-11-26T05:16:09.324Z,20.23
2018-11-26T05:18:38.587Z,20.35
2018-11-26T05:21:07.900Z,20.67
2018-11-26T05:23:37.117Z,21.57
2018-11-26T05:26:06.582Z,20.00
2018-11-26T05:28:35.796Z,21.17
2018-11-26T05:31:05.150Z,22.33
2018-11-26T05:33:34.313Z,21.17
2018-11-26T05:36:03.513Z,20.07
2018-11-26T05:38:32.707Z,19.52
2018-11-26T05:41:02.557Z,20.60
2018-11-26T05:43:31.845Z,20.43
2018-11-26T05:46:01.172Z,20.03
2018-11-26T05:48:30.362Z,18.67
2018-11-26T05:50:59.641Z,19.60
2018-11-26T05:53:28.908Z,19.52
2018-11-26T05:55:58.190Z,20.77
2018-11-26T05:58:27.420Z,19.03
2018-11-26T06:00:56.765Z,19.60
2018-11-26T06:03:26.016Z,19.30
2018-11-26T06:05:55.224Z,19.10
2018-11-26T06:08:24.443Z,18.17
2018-11-26T06:10:53.712Z,18.80
2018-11-26T06:13:23.024Z,17.73
2018-11-26T06:15:52.251Z,19.02
2018-11-26T06:18:21.932Z,18.20
2018-11-26T06:20:52.362Z,17.70
2018-11-26T06:23:21.572Z,17.27
2018-11-26T06:25:50.872Z,17.43
2018-11-26T06:28:20.257Z,17.52
2018-11-26T06:30:49.431Z,17.50
2018-11-26T06:33:18.736Z,18.10
2018-11-26T06:35:47.975Z,18.57
2018-11-26T06:38:17.285Z,17.05
2018-11-26T06:40:46.479Z,16.53
2018-11-26T06:43:15.753Z,17.37
2018-11-26T06:45:45.210Z,17.33
2018-11-26T06:48:14.481Z,17.60
2018-11-26T06:50:44.423Z,17.20
2018-11-26T06:53:16.535Z,18.40
2018-11-26T06:55:45.761Z,16.10
2018-11-26T06:58:15.060Z,18.73
2018-11-26T07:00:44.337Z,17.80
2018-11-26T07:03:13.557Z,16.67
2018-11-26T07:05:51.468Z,18.05
2018-11-26T07:08:20.816Z,16.50
2018-11-26T07:10:50.010Z,15.63
2018-11-26T07:13:19.416Z,16.80
2018-11-26T07:15:48.633Z,16.30
2018-11-26T07:18:17.884Z,16.67
2018-11-26T07:20:47.100Z,16.20
2018-11-26T07:23:16.332Z,16.60
2018-11-26T07:25:45.547Z,17.35
2018-11-26T07:28:16.941Z,16.70
2018-11-26T07:30:46.153Z,16.70
2018-11-26T07:33:15.399Z,16.63
2018-11-26T07:35:44.599Z,15.53
2018-11-26T07:38:13.785Z,15.10
2018-11-26T07:40:42.939Z,15.37
2018-11-26T07:43:13.175Z,15.70
2018-11-26T07:45:42.383Z,14.40
2018-11-26T07:48:12.293Z,14.60
2018-11-26T07:50:41.529Z,13.77
2018-11-26T07:53:11.734Z,15.88
2018-11-26T07:55:41.251Z,14.97
2018-11-26T07:58:10.994Z,15.10
2018-11-26T08:00:40.258Z,14.97
2018-11-26T08:03:09.875Z,15.23
2018-11-26T08:05:39.111Z,14.50
2018-11-26T08:08:08.683Z,14.93
2018-11-26T08:10:38.102Z,14.70
2018-11-26T08:13:07.318Z,15.10
2018-11-26T08:15:36.571Z,16.70
2018-11-26T08:18:05.881Z,15.47
2018-11-26T08:20:35.123Z,15.03
2018-11-26T08:23:04.326Z,14.27
2018-11-26T08:25:33.556Z,14.70
2018-11-26T08:28:02.817Z,14.50
2018-11-26T08:30:32.100Z,14.80
2018-11-26T08:33:01.909Z,15.23
2018-11-26T08:35:31.501Z,14.60
2018-11-26T08:38:06.009Z,15.38
2018-11-26T08:40:40.603Z,14.20
2018-11-26T08:43:15.430Z,15.43
2018-11-26T08:45:52.812Z,13.97
2018-11-26T08:48:26.100Z,15.47
2018-11-26T08:50:57.241Z,14.50
2018-11-26T08:53:26.449Z,15.57
2018-11-26T08:55:55.757Z,15.00
2018-11-26T08:58:24.999Z,15.73
2018-11-26T09:00:59.459Z,15.43
2018-11-26T09:03:33.752Z,14.67
2018-11-26T09:06:03.709Z,15.27
2018-11-26T09:08:33.972Z,14.37
2018-11-26T09:11:03.888Z,13.83
2018-11-26T09:13:33.144Z,13.97
2018-11-26T09:16:02.362Z,12.20
2018-11-26T09:18:31.585Z,13.20
2018-11-26T09:21:00.858Z,12.37
2018-11-26T09:23:30.091Z,13.83
2018-11-26T09:25:59.312Z,12.97
2018-11-26T09:28:28.493Z,12.78
2018-11-26T09:30:57.749Z,13.03
2018-11-26T09:33:26.935Z,11.70
2018-11-26T09:35:56.216Z,12.47
2018-11-26T09:38:25.452Z,11.03
2018-11-26T09:40:55.078Z,12.68
2018-11-26T09:43:24.457Z,11.57
2018-11-26T09:45:53.612Z,12.65
2018-11-26T09:48:22.859Z,12.10
2018-11-26T09:50:52.103Z,11.77
2018-11-26T09:53:21.332Z,11.00
2018-11-26T09:55:50.572Z,11.67
2018-11-26T09:58:19.789Z,12.00
2018-11-26T10:00:49.110Z,11.27
2018-11-26T10:03:18.356Z,10.87
2018-11-26T10:05:47.584Z,10.37
2018-11-26T10:08:16.811Z,11.20
2018-11-26T10:10:46.023Z,11.73
2018-11-26T10:13:15.239Z,9.93
2018-11-26T10:15:44.546Z,10.70
2018-11-26T10:18:13.856Z,11.40
2018-11-26T10:20:43.182Z,11.60
2018-11-26T10:23:12.477Z,11.23
2018-11-26T10:25:41.702Z,12.10
2018-11-26T10:28:11.082Z,11.67
2018-11-26T10:30:40.301Z,11.50
2018-11-26T10:33:14.635Z,11.80
2018-11-26T10:35:39.183Z,10.50
2018-11-26T10:38:09.828Z,10.95
2018-11-26T10:40:39.139Z,11.67
2018-11-26T10:43:11.761Z,10.90
2018-11-26T10:45:38.231Z,11.50
2018-11-26T10:48:07.730Z,10.77
2018-11-26T10:50:36.950Z,10.20
2018-11-26T10:53:06.439Z,10.98
2018-11-26T10:55:36.463Z,11.17
2018-11-26T10:58:06.788Z,9.58
2018-11-26T11:00:41.842Z,9.03
2018-11-26T11:03:12.577Z,10.17
2018-11-26T11:05:42.625Z,10.37
2018-11-26T11:08:13.541Z,9.43
2018-11-26T11:10:44.106Z,9.20
2018-11-26T11:13:15.179Z,8.77
2018-11-26T11:15:45.357Z,9.70
2018-11-26T11:18:14.584Z,10.23
2018-11-26T11:20:43.909Z,9.97
2018-11-26T11:23:13.249Z,10.40
2018-11-26T11:25:42.726Z,9.20
2018-11-26T11:28:11.990Z,10.50
2018-11-26T11:30:41.181Z,9.90
2018-11-26T11:35:39.098Z,10.50
2018-11-26T11:38:08.662Z,9.60
2018-11-26T11:40:37.993Z,10.87
2018-11-26T11:43:07.243Z,9.30
2018-11-26T11:45:36.501Z,11.20
2018-11-26T11:48:06.353Z,9.80
2018-11-26T11:50:35.599Z,9.97
2018-11-26T11:53:05.294Z,9.95
2018-11-26T11:55:37.384Z,9.30
2018-11-26T11:58:06.780Z,10.37
2018-11-26T12:00:41.123Z,9.10
2018-11-26T12:03:15.341Z,9.63
2018-11-26T12:05:44.722Z,9.70
2018-11-26T12:08:14.138Z,9.27
2018-11-26T12:10:43.405Z,9.68
2018-11-26T12:13:14.204Z,10.05
2018-11-26T12:15:46.639Z,9.30
2018-11-26T12:18:15.900Z,10.37
2018-11-26T12:20:45.110Z,11.22
2018-11-26T12:23:14.399Z,9.25
2018-11-26T12:25:43.614Z,9.50
2018-11-26T12:28:12.795Z,9.87
2018-11-26T12:30:46.076Z,10.87
2018-11-26T12:33:15.266Z,9.70
2018-11-26T12:35:44.519Z,10.13
2018-11-26T12:38:13.730Z,8.67
2018-11-26T12:40:42.995Z,10.00
2018-11-26T12:43:12.481Z,10.95
2018-11-26T12:45:41.724Z,10.43
2018-11-26T12:48:11.249Z,9.87
2018-11-26T12:50:40.540Z,9.67
2018-11-26T12:53:10.173Z,9.77
2018-11-26T12:55:39.391Z,10.40
2018-11-26T12:58:09.045Z,9.07
2018-11-26T13:00:38.619Z,10.40
2018-11-26T13:03:11.311Z,10.00
2018-11-26T13:05:40.581Z,11.17
2018-11-26T13:08:10.195Z,10.37
2018-11-26T13:10:39.469Z,10.72
2018-11-26T13:13:10.159Z,11.23
2018-11-26T13:15:39.397Z,10.53
2018-11-26T13:18:09.096Z,11.93
2018-11-26T13:20:38.321Z,12.50
2018-11-26T13:23:09.109Z,11.73
2018-11-26T13:25:41.805Z,11.93
2018-11-26T13:28:09.554Z,10.90
2018-11-26T13:30:44.325Z,11.87
2018-11-26T13:33:14.993Z,11.37
2018-11-26T13:35:44.918Z,11.90
2018-11-26T13:38:14.304Z,11.83
2018-11-26T13:40:43.564Z,11.33
2018-11-26T13:43:14.401Z,11.08
2018-11-26T13:45:44.929Z,11.93
2018-11-26T13:48:15.325Z,12.50
2018-11-26T13:50:46.698Z,12.80
2018-11-26T13:53:15.937Z,11.20
2018-11-26T13:55:45.154Z,11.87
2018-11-26T13:58:14.394Z,11.37
2018-11-26T14:00:43.637Z,12.40
2018-11-26T14:03:12.857Z,11.90
2018-11-26T14:05:42.052Z,11.40
2018-11-26T14:08:11.421Z,10.73
2018-11-26T14:10:40.626Z,10.80
2018-11-26T14:13:12.699Z,11.33
2018-11-26T14:15:41.957Z,11.73
2018-11-26T14:18:11.589Z,10.77
2018-11-26T14:20:40.826Z,12.37
2018-11-26T14:23:10.613Z,11.35
2018-11-26T14:25:39.837Z,11.77
2018-11-26T14:28:09.561Z,11.37
2018-11-26T14:30:38.810Z,11.90
2018-11-26T14:33:08.027Z,11.03
2018-11-26T14:35:37.205Z,11.80
2018-11-26T14:38:09.047Z,11.30
2018-11-26T14:40:44.518Z,12.43
2018-11-26T14:43:13.725Z,10.13
2018-11-26T14:45:42.939Z,10.47
2018-11-26T14:48:12.183Z,11.03
2018-11-26T14:50:41.397Z,10.10
2018-11-26T14:53:12.881Z,11.10
2018-11-26T14:55:42.089Z,10.60
2018-11-26T14:58:11.321Z,12.70
2018-11-26T15:00:41.666Z,10.97
2018-11-26T15:03:11.012Z,12.20
2018-11-26T15:05:40.190Z,11.30
2018-11-26T15:08:09.753Z,12.47
2018-11-26T15:10:38.941Z,12.40
2018-11-26T15:13:08.789Z,11.60
2018-11-26T15:15:38.037Z,13.70
2018-11-26T15:18:07.617Z,12.50
2018-11-26T15:20:36.829Z,11.70
2018-11-26T15:23:07.277Z,12.63
2018-11-26T15:25:36.480Z,11.60
2018-11-26T15:28:08.954Z,11.80
2018-11-26T15:30:38.819Z,13.88
2018-11-26T15:33:08.773Z,12.73
2018-11-26T15:35:38.014Z,12.83
2018-11-26T15:38:07.368Z,12.83
2018-11-26T15:40:36.643Z,12.10
2018-11-26T15:43:06.404Z,14.20
2018-11-26T15:45:35.830Z,13.47
2018-11-26T15:48:07.674Z,12.47
2018-11-26T15:50:36.902Z,12.13
2018-11-26T15:53:07.174Z,12.73
2018-11-26T15:55:36.544Z,13.37
2018-11-26T15:58:06.573Z,13.60
2018-11-26T16:00:35.928Z,13.60
2018-11-26T16:03:05.638Z,12.13
2018-11-26T16:05:34.918Z,12.80
2018-11-26T16:08:07.186Z,13.50
2018-11-26T16:10:36.472Z,13.83
2018-11-26T16:13:07.168Z,13.43
2018-11-26T16:15:37.909Z,14.30
2018-11-26T16:18:08.845Z,13.25
2018-11-26T16:20:38.122Z,13.98
2018-11-26T16:23:08.739Z,14.60
2018-11-26T16:25:39.923Z,14.43
2018-11-26T16:28:09.541Z,15.10
2018-11-26T16:30:38.802Z,14.23
2018-11-26T16:33:08.537Z,15.50
2018-11-26T16:35:37.840Z,14.70
2018-11-26T16:38:07.830Z,14.70
2018-11-26T16:40:37.036Z,14.97
2018-11-26T16:43:06.834Z,14.10
2018-11-26T16:45:36.060Z,14.80
2018-11-26T16:48:05.391Z,15.80
2018-11-26T16:50:35.817Z,15.13
2018-11-26T16:53:05.229Z,13.80
2018-11-26T16:55:34.398Z,14.70
2018-11-26T16:58:03.845Z,15.30
2018-11-26T17:00:33.105Z,15.75
2018-11-26T17:03:02.590Z,14.83
2018-11-26T17:05:37.728Z,14.10
2018-11-26T17:08:08.495Z,14.33
2018-11-26T17:10:37.704Z,15.00
2018-11-26T17:13:07.134Z,14.70
2018-11-26T17:15:36.602Z,14.67
2018-11-26T17:18:06.903Z,15.87
2018-11-26T17:20:37.196Z,15.37
2018-11-26T17:23:06.910Z,14.87
2018-11-26T17:25:36.825Z,15.18
2018-11-26T17:28:06.484Z,15.67
2018-11-26T17:30:36.119Z,15.35
2018-11-26T17:33:06.260Z,14.70
2018-11-26T17:35:35.559Z,15.40
2018-11-26T17:38:04.819Z,15.50
2018-11-26T17:40:34.034Z,14.73
2018-11-26T17:43:03.226Z,15.77
2018-11-26T17:45:32.473Z,16.57
2018-11-26T17:48:01.737Z,14.77
2018-11-26T17:50:33.441Z,15.27
2018-11-26T17:53:02.704Z,15.07
2018-11-26T17:55:31.994Z,16.30
2018-11-26T17:58:01.229Z,15.07
2018-11-26T18:00:33.491Z,16.73
2018-11-26T18:03:02.782Z,14.73
2018-11-26T18:05:32.344Z,16.10
2018-11-26T18:08:18.293Z,14.70
2018-11-26T18:10:47.529Z,15.20
2018-11-26T18:13:16.817Z,15.23
2018-11-26T18:15:46.156Z,14.80
2018-11-26T18:18:16.989Z,15.70
2018-11-26T18:20:46.678Z,14.43
2018-11-26T18:23:16.791Z,15.33
2018-11-26T18:25:45.995Z,16.00
2018-11-26T18:28:16.450Z,14.73
2018-11-26T18:30:46.968Z,14.30
2018-11-26T18:33:16.801Z,14.73
2018-11-26T18:35:46.902Z,15.90
2018-11-26T18:38:17.264Z,15.23
2018-11-26T18:41:15.729Z,14.50
2018-11-26T18:43:45.124Z,14.43
2018-11-26T18:46:15.003Z,15.60
2018-11-26T18:48:45.375Z,15.43
2018-11-26T18:51:15.085Z,17.10
2018-11-26T18:53:44.431Z,16.67
2018-11-26T18:56:14.390Z,15.83
2018-11-26T18:58:43.651Z,15.43
2018-11-26T19:01:13.971Z,15.73
2018-11-26T19:03:43.219Z,16.07
2018-11-26T19:06:13.182Z,15.97
2018-11-26T19:08:42.386Z,16.60
2018-11-26T19:11:14.838Z,16.15
2018-11-26T19:13:53.411Z,15.17
2018-11-26T19:16:24.589Z,16.15
2018-11-26T19:18:53.784Z,15.13
2018-11-26T19:21:25.847Z,16.43
2018-11-26T19:23:55.050Z,17.00
2018-11-26T19:26:24.393Z,15.43
2018-11-26T19:28:53.617Z,14.93
2018-11-26T19:31:22.852Z,15.17
2018-11-26T19:33:52.110Z,15.98
2018-11-26T19:36:21.367Z,15.70
2018-11-26T19:38:50.582Z,15.67
2018-11-26T19:41:19.817Z,14.87
2018-11-26T19:43:49.137Z,15.10
2018-11-26T19:46:18.359Z,16.10
2018-11-26T19:48:47.650Z,15.03
2018-11-26T19:51:16.924Z,15.10
2018-11-26T19:53:46.154Z,14.87
2018-11-26T19:56:15.695Z,13.27
2018-11-26T19:58:44.942Z,14.67
2018-11-26T20:01:15.027Z,13.93
2018-11-26T20:03:46.977Z,14.63
2018-11-26T20:06:18.405Z,14.55
2018-11-26T20:08:49.054Z,15.20
2018-11-26T20:11:18.395Z,13.13
2018-11-26T20:13:48.750Z,14.27
2018-11-26T20:16:25.883Z,14.70
2018-11-26T20:18:55.166Z,13.70
2018-11-26T20:21:24.404Z,14.60
2018-11-26T20:23:53.625Z,14.93
2018-11-26T20:26:22.883Z,13.73
2018-11-26T20:28:56.793Z,13.80
2018-11-26T20:31:21.679Z,14.43
2018-11-26T20:33:51.716Z,13.80
2018-11-26T20:36:21.768Z,12.67
2018-11-26T20:38:50.981Z,12.87
2018-11-26T20:41:20.245Z,13.07
2018-11-26T20:43:49.442Z,14.00
2018-11-26T20:46:18.670Z,13.20
2018-11-26T20:48:47.945Z,11.60
2018-11-26T20:51:17.486Z,12.20
2018-11-26T20:53:46.732Z,15.80
2018-11-26T20:56:18.255Z,12.70
2018-11-26T20:58:47.963Z,12.23
2018-11-26T21:01:17.741Z,13.33
2018-11-26T21:03:46.986Z,11.40
2018-11-26T21:06:16.378Z,12.20
2018-11-26T21:08:45.630Z,12.40
2018-11-26T21:11:15.331Z,12.70
2018-11-26T21:13:44.619Z,11.93
2018-11-26T21:16:13.858Z,10.50
2018-11-26T21:18:43.205Z,11.40
2018-11-26T21:21:12.985Z,12.60
2018-11-26T21:23:42.186Z,10.67
2018-11-26T21:26:11.598Z,11.93
2018-11-26T21:28:40.978Z,10.28
2018-11-26T21:31:10.218Z,10.17
2018-11-26T21:33:39.442Z,9.90
2018-11-26T21:36:08.923Z,11.50
2018-11-26T21:38:39.682Z,11.93
2018-11-26T21:41:08.960Z,11.08
2018-11-26T21:43:38.251Z,11.47
2018-11-26T21:46:08.311Z,10.80
2018-11-26T21:48:37.608Z,11.50
2018-11-26T21:51:06.943Z,11.50
2018-11-26T21:53:36.181Z,11.30
2018-11-26T21:56:05.527Z,13.07
2018-11-26T21:58:34.778Z,11.83
2018-11-26T22:01:06.184Z,11.53
2018-11-26T22:03:35.654Z,12.00
2018-11-26T22:06:05.474Z,11.73
2018-11-26T22:08:34.972Z,11.10
2018-11-26T22:11:04.302Z,11.33
2018-11-26T22:13:33.639Z,11.30
2018-11-26T22:16:02.877Z,11.63
2018-11-26T22:18:32.209Z,10.90
2018-11-26T22:21:01.437Z,12.90
2018-11-26T22:23:30.658Z,11.60
2018-11-26T22:25:59.918Z,12.33
2018-11-26T22:28:29.171Z,12.50
2018-11-26T22:30:58.494Z,11.50
2018-11-26T22:33:27.717Z,11.63
2018-11-26T22:35:57.566Z,11.93
2018-11-26T22:38:26.827Z,12.40
2018-11-26T22:40:56.100Z,12.43
2018-11-26T22:43:25.342Z,11.83
2018-11-26T22:45:54.668Z,11.88
2018-11-26T22:48:23.902Z,11.87
2018-11-26T22:50:53.157Z,12.10
2018-11-26T22:53:22.437Z,10.90
2018-11-26T22:55:51.653Z,11.00
2018-11-26T22:58:21.011Z,11.93
2018-11-26T23:00:52.736Z,11.67
2018-11-26T23:03:25.083Z,12.10
2018-11-26T23:05:54.316Z,10.40
2018-11-26T23:08:23.926Z,11.50
2018-11-26T23:10:53.177Z,11.45
2018-11-26T23:13:23.466Z,11.20
2018-11-26T23:15:52.681Z,11.33
2018-11-26T23:18:21.929Z,10.72
2018-11-26T23:20:52.687Z,10.47
2018-11-26T23:23:22.065Z,11.48
2018-11-26T23:25:52.060Z,10.40
2018-11-26T23:28:21.317Z,10.07
2018-11-26T23:30:50.592Z,11.83
2018-11-26T23:33:19.854Z,11.00
2018-11-26T23:35:50.340Z,11.80
2018-11-26T23:38:21.486Z,12.00
2018-11-26T23:40:50.770Z,10.87
2018-11-26T23:43:19.973Z,11.35
2018-11-26T23:45:49.189Z,11.30
2018-11-26T23:48:18.768Z,11.50
2018-11-26T23:50:48.021Z,11.70
2018-11-26T23:53:17.299Z,12.10
2018-11-26T23:55:46.608Z,11.10
2018-11-26T23:58:16.470Z,11.73
